createdAt,value
2023-01-19T00:00:21.886Z,6.20
2023-01-19T00:02:48.661Z,6.27
2023-01-19T00:05:15.331Z,6.07
2023-01-19T00:07:42.079Z,6.48
2023-01-19T00:10:10.064Z,6.54
2023-01-19T00:12:36.614Z,6.19
2023-01-19T00:15:03.477Z,5.90
2023-01-19T00:17:30.223Z,6.13
2023-01-19T00:19:56.748Z,6.02
2023-01-19T00:22:23.334Z,6.27
2023-01-19T00:24:50.471Z,6.09
2023-01-19T00:27:17.071Z,6.40
2023-01-19T00:29:43.617Z,6.35
2023-01-19T00:32:10.291Z,6.48
2023-01-19T00:34:36.901Z,6.51
2023-01-19T00:37:04.213Z,6.60
2023-01-19T00:39:30.948Z,6.60
2023-01-19T00:42:16.082Z,6.34
2023-01-19T00:44:42.699Z,6.56
2023-01-19T00:47:09.698Z,6.34
2023-01-19T00:49:36.305Z,6.31
2023-01-19T00:52:03.035Z,6.46
2023-01-19T00:54:29.555Z,6.36
2023-01-19T00:56:56.300Z,6.47
2023-01-19T00:59:22.910Z,6.56
2023-01-19T01:01:49.634Z,6.66
2023-01-19T01:04:16.311Z,6.46
2023-01-19T01:06:42.905Z,6.35
2023-01-19T01:09:12.142Z,6.33
2023-01-19T01:11:42.744Z,6.22
2023-01-19T01:14:13.147Z,6.31
2023-01-19T01:16:40.171Z,6.19
2023-01-19T01:19:06.826Z,6.34
2023-01-19T01:21:34.626Z,6.25
2023-01-19T01:24:01.755Z,6.26
2023-01-19T01:26:28.362Z,5.93
2023-01-19T01:28:54.888Z,6.13
2023-01-19T01:31:21.479Z,6.25
2023-01-19T01:33:48.011Z,6.30
2023-01-19T01:36:14.652Z,6.11
2023-01-19T01:38:41.791Z,6.27
2023-01-19T01:41:09.025Z,6.39
2023-01-19T01:43:50.869Z,6.29
2023-01-19T01:46:18.195Z,6.44
2023-01-19T01:48:50.428Z,6.43
2023-01-19T01:51:28.991Z,6.41
2023-01-19T01:54:04.855Z,6.15
2023-01-19T01:56:35.696Z,6.22
2023-01-19T01:59:07.605Z,6.36
2023-01-19T02:01:53.939Z,6.23
2023-01-19T02:04:21.157Z,5.79
2023-01-19T02:07:07.040Z,5.70
2023-01-19T02:09:54.975Z,5.77
2023-01-19T02:12:41.232Z,5.79
2023-01-19T02:15:18.987Z,6.09
2023-01-19T02:17:46.458Z,5.69
2023-01-19T02:20:13.811Z,5.77
2023-01-19T02:22:51.254Z,5.67
2023-01-19T02:25:19.487Z,5.90
2023-01-19T02:27:46.932Z,5.93
2023-01-19T02:30:14.279Z,5.79
2023-01-19T02:32:40.853Z,5.82
2023-01-19T02:35:07.646Z,5.85
2023-01-19T02:37:39.988Z,5.71
2023-01-19T02:40:12.367Z,5.80
2023-01-19T02:42:45.673Z,5.91
2023-01-19T02:45:19.897Z,5.92
2023-01-19T02:47:49.243Z,5.61
2023-01-19T02:50:38.585Z,5.97
2023-01-19T02:53:11.583Z,6.08
2023-01-19T02:55:40.250Z,5.90
2023-01-19T02:58:31.633Z,6.03
2023-01-19T03:01:29.406Z,6.07
2023-01-19T03:04:04.311Z,5.99
2023-01-19T03:06:47.018Z,6.08
2023-01-19T03:09:19.433Z,5.98
2023-01-19T03:11:54.257Z,5.97
2023-01-19T03:14:26.677Z,6.01
2023-01-19T03:17:01.787Z,5.95
2023-01-19T03:19:37.750Z,6.12
2023-01-19T03:22:09.668Z,5.90
2023-01-19T03:24:40.288Z,5.95
2023-01-19T03:27:25.428Z,5.98
2023-01-19T03:29:57.683Z,5.89
2023-01-19T03:32:31.418Z,5.97
2023-01-19T03:35:03.239Z,5.85
2023-01-19T03:37:31.730Z,5.84
2023-01-19T03:39:58.306Z,5.56
2023-01-19T03:42:27.034Z,5.81
2023-01-19T03:44:56.465Z,5.89
2023-01-19T03:47:24.727Z,5.88
2023-01-19T03:49:53.151Z,5.53
2023-01-19T03:52:28.324Z,5.76
2023-01-19T03:54:55.249Z,5.69
2023-01-19T03:57:22.142Z,5.59
2023-01-19T03:59:49.463Z,5.56
2023-01-19T04:02:16.094Z,5.61
2023-01-19T04:04:42.736Z,5.69
2023-01-19T04:07:10.936Z,5.68
2023-01-19T04:09:37.569Z,5.76
2023-01-19T04:12:04.290Z,5.73
2023-01-19T04:14:30.828Z,5.75
2023-01-19T04:16:57.388Z,5.70
2023-01-19T04:19:24.992Z,5.83
2023-01-19T04:21:51.786Z,5.78
2023-01-19T04:24:18.430Z,5.38
2023-01-19T04:26:45.012Z,5.52
2023-01-19T04:29:11.585Z,5.51
2023-01-19T04:31:38.207Z,5.40
2023-01-19T04:34:04.729Z,5.38
2023-01-19T04:36:31.348Z,5.41
2023-01-19T04:38:57.910Z,5.38
2023-01-19T04:41:24.487Z,5.50
2023-01-19T04:43:51.040Z,5.53
2023-01-19T04:46:17.634Z,5.39
2023-01-19T04:48:44.250Z,5.34
2023-01-19T04:51:10.780Z,5.30
2023-01-19T04:53:37.392Z,5.35
2023-01-19T04:56:04.085Z,5.35
2023-01-19T04:58:30.668Z,5.39
2023-01-19T05:00:57.264Z,5.40
2023-01-19T05:03:25.676Z,5.37
2023-01-19T05:05:53.330Z,5.43
2023-01-19T05:08:19.908Z,5.34
2023-01-19T05:10:47.949Z,5.27
2023-01-19T05:13:14.472Z,5.30
2023-01-19T05:15:41.032Z,5.28
2023-01-19T05:18:07.563Z,5.22
2023-01-19T05:20:34.105Z,5.24
2023-01-19T05:23:01.083Z,5.15
2023-01-19T05:25:27.853Z,5.21
2023-01-19T05:27:54.536Z,5.19
2023-01-19T05:30:21.309Z,5.18
2023-01-19T05:32:47.818Z,5.21
2023-01-19T05:35:16.664Z,5.14
2023-01-19T05:37:44.772Z,5.11
2023-01-19T05:40:11.738Z,5.06
2023-01-19T05:42:38.502Z,5.01
2023-01-19T05:45:05.717Z,4.89
2023-01-19T05:47:32.322Z,4.95
2023-01-19T05:49:58.972Z,4.89
2023-01-19T05:52:25.517Z,4.81
2023-01-19T05:54:53.036Z,4.79
2023-01-19T05:57:19.534Z,4.82
2023-01-19T05:59:46.298Z,4.82
2023-01-19T06:02:12.963Z,4.75
2023-01-19T06:04:39.588Z,4.76
2023-01-19T06:07:06.978Z,4.78
2023-01-19T06:09:33.657Z,4.76
2023-01-19T06:12:00.255Z,4.84
2023-01-19T06:14:27.002Z,4.79
2023-01-19T06:16:53.556Z,4.79
2023-01-19T06:19:20.127Z,4.94
2023-01-19T06:21:49.771Z,4.94
2023-01-19T06:24:16.485Z,4.91
2023-01-19T06:26:43.722Z,4.90
2023-01-19T06:29:12.092Z,4.90
2023-01-19T06:31:38.647Z,4.98
2023-01-19T06:34:05.258Z,4.85
2023-01-19T06:36:31.939Z,4.68
2023-01-19T06:38:58.887Z,4.79
2023-01-19T06:41:25.390Z,4.79
2023-01-19T06:43:51.915Z,4.81
2023-01-19T06:46:18.491Z,4.79
2023-01-19T06:48:45.079Z,4.64
2023-01-19T06:51:11.581Z,4.61
2023-01-19T06:53:38.967Z,4.55
2023-01-19T06:56:06.685Z,4.58
2023-01-19T06:58:34.780Z,4.64
2023-01-19T07:01:03.984Z,4.71
2023-01-19T07:03:30.922Z,4.72
2023-01-19T07:05:57.599Z,4.67
2023-01-19T07:08:24.251Z,4.62
2023-01-19T07:11:25.420Z,4.60
2023-01-19T07:13:38.657Z,4.46
2023-01-19T07:16:11.886Z,4.56
2023-01-19T07:18:39.910Z,4.68
2023-01-19T07:21:07.190Z,4.56
2023-01-19T07:23:34.769Z,4.68
2023-01-19T07:26:01.993Z,4.71
2023-01-19T07:28:29.633Z,4.72
2023-01-19T07:30:56.666Z,4.45
2023-01-19T07:33:25.042Z,4.64
2023-01-19T07:35:53.179Z,4.56
2023-01-19T07:38:20.341Z,4.64
2023-01-19T07:40:46.993Z,4.68
2023-01-19T07:43:14.035Z,4.60
2023-01-19T07:45:40.763Z,4.76
2023-01-19T07:48:07.585Z,4.78
2023-01-19T07:50:34.117Z,4.88
2023-01-19T07:53:08.857Z,4.89
2023-01-19T07:55:35.749Z,4.87
2023-01-19T07:58:06.436Z,4.97
2023-01-19T08:00:35.236Z,5.24
2023-01-19T08:03:04.034Z,5.20
2023-01-19T08:05:32.044Z,5.11
2023-01-19T08:07:58.994Z,5.28
2023-01-19T08:10:26.980Z,5.00
2023-01-19T08:12:54.376Z,5.02
2023-01-19T08:15:23.907Z,4.89
2023-01-19T08:17:58.097Z,5.10
2023-01-19T08:20:25.641Z,5.20
2023-01-19T08:22:59.727Z,5.14
2023-01-19T08:25:34.771Z,5.01
2023-01-19T08:28:02.181Z,4.81
2023-01-19T08:30:28.897Z,5.27
2023-01-19T08:33:03.797Z,5.55
2023-01-19T08:35:31.447Z,5.58
2023-01-19T08:38:01.152Z,5.75
2023-01-19T08:40:35.060Z,5.57
2023-01-19T08:43:07.849Z,5.57
2023-01-19T08:45:41.328Z,5.43
2023-01-19T08:48:08.248Z,5.24
2023-01-19T08:50:35.043Z,5.15
2023-01-19T08:53:03.601Z,5.36
2023-01-19T08:55:30.589Z,5.31
2023-01-19T08:57:58.088Z,5.10
2023-01-19T09:00:25.374Z,5.44
2023-01-19T09:02:51.922Z,5.57
2023-01-19T09:05:18.660Z,5.50
2023-01-19T09:07:47.873Z,5.75
2023-01-19T09:10:15.530Z,5.92
2023-01-19T09:12:42.158Z,5.79
2023-01-19T09:15:10.644Z,5.84
2023-01-19T09:17:37.396Z,6.14
2023-01-19T09:20:05.853Z,6.08
2023-01-19T09:22:33.246Z,5.65
2023-01-19T09:25:00.334Z,6.10
2023-01-19T09:27:26.923Z,5.91
2023-01-19T09:29:54.021Z,6.07
2023-01-19T09:32:21.577Z,5.92
2023-01-19T09:34:48.258Z,6.25
2023-01-19T09:37:16.095Z,6.32
2023-01-19T09:39:42.739Z,6.10
2023-01-19T09:42:21.804Z,6.42
2023-01-19T09:44:50.447Z,6.67
2023-01-19T09:47:21.099Z,6.76
2023-01-19T09:49:54.960Z,6.57
2023-01-19T09:52:22.457Z,6.69
2023-01-19T09:54:52.829Z,5.78
2023-01-19T09:57:21.316Z,5.98
2023-01-19T09:59:50.774Z,6.21
2023-01-19T10:02:32.803Z,6.26
2023-01-19T10:05:19.379Z,6.89
2023-01-19T10:07:58.303Z,7.05
2023-01-19T10:10:27.264Z,6.97
2023-01-19T10:13:10.539Z,7.15
2023-01-19T10:15:45.212Z,7.52
2023-01-19T10:18:13.552Z,7.01
2023-01-19T10:21:04.564Z,7.13
2023-01-19T10:23:41.075Z,7.37
2023-01-19T10:26:36.308Z,6.99
2023-01-19T10:29:14.563Z,7.25
2023-01-19T10:31:44.763Z,6.97
2023-01-19T10:34:20.413Z,6.78
2023-01-19T10:36:52.869Z,7.40
2023-01-19T10:39:19.894Z,7.21
2023-01-19T10:41:50.017Z,7.54
2023-01-19T10:44:28.497Z,7.50
2023-01-19T10:46:59.263Z,8.02
2023-01-19T10:49:29.935Z,8.54
2023-01-19T10:51:58.469Z,8.19
2023-01-19T10:54:27.606Z,8.20
2023-01-19T10:56:57.398Z,7.88
2023-01-19T10:59:52.280Z,7.84
2023-01-19T11:02:27.697Z,8.05
2023-01-19T11:04:57.497Z,7.69
2023-01-19T11:07:26.919Z,8.65
2023-01-19T11:10:11.866Z,9.78
2023-01-19T11:13:04.100Z,9.82
2023-01-19T11:15:41.515Z,10.28
2023-01-19T11:18:08.347Z,10.46
2023-01-19T11:20:52.744Z,10.79
2023-01-19T11:23:41.935Z,10.08
2023-01-19T11:26:15.734Z,10.47
2023-01-19T11:28:51.315Z,10.06
2023-01-19T11:31:29.334Z,9.59
2023-01-19T11:34:05.995Z,9.35
2023-01-19T11:36:35.749Z,9.35
2023-01-19T11:39:30.121Z,9.57
2023-01-19T11:42:06.267Z,9.01
2023-01-19T11:44:36.411Z,8.94
2023-01-19T11:47:06.218Z,9.01
2023-01-19T11:49:58.290Z,8.96
2023-01-19T11:52:34.657Z,9.75
2023-01-19T11:55:21.395Z,9.90
2023-01-19T11:57:53.432Z,10.08
2023-01-19T12:00:31.214Z,10.33
2023-01-19T12:03:19.764Z,9.45
2023-01-19T12:05:51.091Z,10.12
2023-01-19T12:08:30.425Z,10.03
2023-01-19T12:10:59.844Z,9.10
2023-01-19T12:13:30.236Z,9.45
2023-01-19T12:16:04.589Z,9.69
2023-01-19T12:18:38.661Z,9.76
2023-01-19T12:21:05.386Z,8.46
2023-01-19T12:23:50.961Z,8.01
2023-01-19T12:26:29.587Z,8.79
2023-01-19T12:29:18.634Z,8.72
2023-01-19T12:31:45.632Z,7.92
2023-01-19T12:34:31.352Z,8.70
2023-01-19T12:37:03.881Z,7.25
2023-01-19T12:39:32.905Z,7.73
2023-01-19T12:42:15.101Z,7.75
2023-01-19T12:44:42.876Z,8.18
2023-01-19T12:47:15.573Z,8.48
2023-01-19T12:49:48.130Z,7.98
2023-01-19T12:52:40.411Z,8.40
2023-01-19T12:55:12.972Z,8.15
2023-01-19T12:57:41.738Z,8.15
2023-01-19T13:00:30.162Z,7.94
2023-01-19T13:02:59.381Z,8.15
2023-01-19T13:05:25.999Z,7.91
2023-01-19T13:08:01.663Z,8.03
2023-01-19T13:10:50.286Z,8.19
2023-01-19T13:13:19.525Z,8.24
2023-01-19T13:15:46.347Z,8.07
2023-01-19T13:18:29.482Z,8.99
2023-01-19T13:21:03.369Z,9.01
2023-01-19T13:23:56.324Z,9.37
2023-01-19T13:26:26.197Z,9.35
2023-01-19T13:28:57.071Z,9.33
2023-01-19T13:31:25.460Z,9.66
2023-01-19T13:33:55.110Z,9.94
2023-01-19T13:36:31.063Z,9.64
2023-01-19T13:39:01.597Z,8.93
2023-01-19T13:41:32.969Z,8.56
2023-01-19T13:44:09.361Z,8.52
2023-01-19T13:46:38.479Z,8.33
2023-01-19T13:49:17.113Z,8.52
2023-01-19T13:51:43.633Z,8.89
2023-01-19T13:54:16.821Z,8.33
2023-01-19T13:56:52.428Z,8.48
2023-01-19T13:59:19.025Z,8.77
2023-01-19T14:01:46.672Z,8.82
2023-01-19T14:04:31.263Z,8.44
2023-01-19T14:07:02.173Z,8.43
2023-01-19T14:09:28.791Z,8.68
2023-01-19T14:12:25.644Z,8.73
2023-01-19T14:14:52.388Z,8.70
2023-01-19T14:17:28.380Z,8.76
2023-01-19T14:20:01.117Z,8.70
2023-01-19T14:22:42.795Z,8.52
2023-01-19T14:25:29.450Z,8.38
2023-01-19T14:28:39.446Z,8.36
2023-01-19T14:31:24.865Z,8.25
2023-01-19T14:33:55.546Z,8.29
2023-01-19T14:36:34.500Z,8.11
2023-01-19T14:39:02.263Z,7.62
2023-01-19T14:41:39.800Z,7.28
2023-01-19T14:44:11.507Z,7.52
2023-01-19T14:46:44.119Z,7.67
2023-01-19T14:49:20.385Z,7.65
2023-01-19T14:51:48.932Z,7.49
2023-01-19T14:54:19.186Z,7.88
2023-01-19T14:56:45.840Z,8.05
2023-01-19T14:59:12.588Z,8.10
2023-01-19T15:01:39.420Z,7.70
2023-01-19T15:04:06.075Z,7.99
2023-01-19T15:06:34.620Z,7.82
2023-01-19T15:09:01.182Z,7.94
2023-01-19T15:11:32.574Z,7.80
2023-01-19T15:13:59.528Z,7.90
2023-01-19T15:16:27.636Z,8.06
2023-01-19T15:18:54.620Z,7.87
2023-01-19T15:21:26.636Z,7.58
2023-01-19T15:23:54.524Z,7.34
2023-01-19T15:26:23.830Z,7.60
2023-01-19T15:28:50.708Z,7.64
2023-01-19T15:31:25.724Z,7.88
2023-01-19T15:33:52.457Z,7.85
2023-01-19T15:36:24.096Z,7.78
2023-01-19T15:38:51.048Z,7.67
2023-01-19T15:41:28.597Z,7.63
2023-01-19T15:43:55.729Z,7.68
2023-01-19T15:46:23.611Z,7.70
2023-01-19T15:48:50.662Z,7.70
2023-01-19T15:51:20.207Z,7.74
2023-01-19T15:53:47.585Z,7.66
2023-01-19T15:56:32.230Z,7.59
2023-01-19T15:58:59.140Z,7.43
2023-01-19T16:01:32.172Z,7.59
2023-01-19T16:04:01.376Z,7.41
2023-01-19T16:06:29.199Z,7.62
2023-01-19T16:08:59.674Z,7.58
2023-01-19T16:11:28.900Z,7.20
2023-01-19T16:13:55.552Z,7.49
2023-01-19T16:16:23.717Z,7.25
2023-01-19T16:18:50.642Z,7.21
2023-01-19T16:21:17.434Z,6.94
2023-01-19T16:23:44.026Z,7.11
2023-01-19T16:26:30.339Z,7.29
2023-01-19T16:29:09.761Z,7.26
2023-01-19T16:31:37.652Z,7.21
2023-01-19T16:34:04.240Z,7.35
2023-01-19T16:36:32.985Z,7.29
2023-01-19T16:39:01.375Z,7.26
2023-01-19T16:41:28.129Z,7.16
2023-01-19T16:43:56.463Z,7.08
2023-01-19T16:46:32.463Z,7.14
2023-01-19T16:49:01.185Z,7.11
2023-01-19T16:51:27.946Z,7.21
2023-01-19T16:53:54.539Z,7.34
2023-01-19T16:56:21.166Z,7.28
2023-01-19T16:58:47.704Z,6.74
2023-01-19T17:01:20.351Z,6.85
2023-01-19T17:03:47.849Z,7.06
2023-01-19T17:06:18.086Z,7.31
2023-01-19T17:08:45.055Z,7.49
2023-01-19T17:11:20.757Z,7.39
2023-01-19T17:13:48.799Z,7.34
2023-01-19T17:16:15.566Z,7.13
2023-01-19T17:18:42.210Z,7.29
2023-01-19T17:21:10.169Z,7.09
2023-01-19T17:23:37.456Z,7.18
2023-01-19T17:26:04.985Z,7.00
2023-01-19T17:28:31.553Z,7.09
2023-01-19T17:31:07.138Z,7.16
2023-01-19T17:33:35.127Z,7.23
2023-01-19T17:36:09.801Z,7.13
2023-01-19T17:38:36.920Z,7.17
2023-01-19T17:41:18.606Z,7.13
2023-01-19T17:43:45.995Z,6.83
2023-01-19T17:46:13.223Z,7.11
2023-01-19T17:48:39.993Z,7.22
2023-01-19T17:51:09.517Z,7.07
2023-01-19T17:53:37.172Z,6.78
2023-01-19T17:56:05.285Z,7.08
2023-01-19T17:58:32.137Z,7.23
2023-01-19T18:00:58.947Z,7.25
2023-01-19T18:03:25.562Z,6.98
2023-01-19T18:05:55.732Z,7.13
2023-01-19T18:08:22.262Z,6.86
2023-01-19T18:10:56.331Z,6.85
2023-01-19T18:13:23.650Z,6.82
2023-01-19T18:15:50.343Z,6.63
2023-01-19T18:18:17.859Z,6.87
2023-01-19T18:20:44.669Z,6.98
2023-01-19T18:23:12.018Z,7.09
2023-01-19T18:25:39.656Z,7.27
2023-01-19T18:28:07.156Z,7.31
2023-01-19T18:30:35.015Z,7.49
2023-01-19T18:33:01.742Z,7.49
2023-01-19T18:35:28.765Z,7.38
2023-01-19T18:37:56.906Z,7.60
2023-01-19T18:40:23.882Z,7.51
2023-01-19T18:42:50.847Z,7.53
2023-01-19T18:45:17.412Z,7.50
2023-01-19T18:47:44.066Z,7.41
2023-01-19T18:50:12.984Z,7.31
2023-01-19T18:52:40.202Z,7.20
2023-01-19T18:55:07.042Z,7.26
2023-01-19T18:57:35.562Z,7.25
2023-01-19T19:00:03.693Z,7.24
2023-01-19T19:02:30.339Z,7.33
2023-01-19T19:04:56.890Z,7.40
2023-01-19T19:07:23.546Z,7.32
2023-01-19T19:09:50.203Z,7.33
2023-01-19T19:12:16.727Z,7.46
2023-01-19T19:14:43.438Z,7.54
2023-01-19T19:17:09.957Z,7.52
2023-01-19T19:19:36.491Z,7.47
2023-01-19T19:22:03.425Z,7.47
2023-01-19T19:24:30.221Z,7.43
2023-01-19T19:26:56.941Z,7.56
2023-01-19T19:29:23.476Z,7.46
2023-01-19T19:31:50.053Z,7.50
2023-01-19T19:34:16.660Z,7.53
2023-01-19T19:36:43.179Z,7.60
2023-01-19T19:39:09.713Z,7.28
2023-01-19T19:41:38.245Z,7.23
2023-01-19T19:44:04.854Z,7.12
2023-01-19T19:46:31.492Z,6.92
2023-01-19T19:48:58.066Z,6.86
2023-01-19T19:51:27.546Z,7.06
2023-01-19T19:53:58.932Z,7.31
2023-01-19T19:56:28.760Z,7.36
2023-01-19T19:58:57.162Z,7.35
2023-01-19T20:01:28.460Z,7.35
2023-01-19T20:03:57.272Z,7.39
2023-01-19T20:06:25.053Z,7.31
2023-01-19T20:08:53.579Z,7.31
2023-01-19T20:11:23.457Z,7.35
2023-01-19T20:13:50.969Z,7.35
2023-01-19T20:16:19.718Z,7.25
2023-01-19T20:18:50.744Z,7.38
2023-01-19T20:21:20.579Z,7.29
2023-01-19T20:23:48.849Z,7.35
2023-01-19T20:26:18.647Z,7.28
2023-01-19T20:28:45.418Z,7.17
2023-01-19T20:31:16.513Z,7.25
2023-01-19T20:33:44.069Z,7.22
2023-01-19T20:36:11.560Z,7.09
2023-01-19T20:38:39.450Z,7.06
2023-01-19T20:41:07.775Z,7.03
2023-01-19T20:43:35.041Z,6.91
2023-01-19T20:46:01.816Z,6.78
2023-01-19T20:48:28.562Z,6.80
2023-01-19T20:51:00.040Z,6.84
2023-01-19T20:53:26.755Z,6.86
2023-01-19T20:55:53.331Z,6.83
2023-01-19T20:58:20.030Z,6.86
2023-01-19T21:00:46.727Z,6.82
2023-01-19T21:03:13.708Z,6.76
2023-01-19T21:05:40.644Z,6.68
2023-01-19T21:08:07.289Z,6.69
2023-01-19T21:10:33.817Z,6.58
2023-01-19T21:13:00.340Z,6.59
2023-01-19T21:15:26.877Z,6.59
2023-01-19T21:17:53.536Z,6.55
2023-01-19T21:20:20.195Z,6.56
2023-01-19T21:22:46.788Z,6.37
2023-01-19T21:25:13.613Z,6.15
2023-01-19T21:27:40.242Z,6.16
2023-01-19T21:30:07.334Z,6.18
2023-01-19T21:32:33.851Z,6.14
2023-01-19T21:35:00.462Z,6.18
2023-01-19T21:37:30.341Z,6.29
2023-01-19T21:39:57.480Z,6.31
2023-01-19T21:42:24.002Z,6.38
2023-01-19T21:44:50.527Z,6.38
2023-01-19T21:47:17.080Z,6.47
2023-01-19T21:49:43.922Z,6.42
2023-01-19T21:52:10.447Z,6.45
2023-01-19T21:54:37.000Z,6.46
2023-01-19T21:57:03.673Z,6.48
2023-01-19T21:59:30.179Z,6.50
2023-01-19T22:01:56.929Z,6.58
2023-01-19T22:04:23.514Z,6.58
2023-01-19T22:06:50.092Z,6.55
2023-01-19T22:09:16.734Z,6.58
2023-01-19T22:11:43.240Z,6.53
2023-01-19T22:14:11.335Z,6.54
2023-01-19T22:16:37.879Z,6.53
2023-01-19T22:19:07.237Z,6.57
2023-01-19T22:21:35.778Z,6.42
2023-01-19T22:24:04.108Z,6.43
2023-01-19T22:26:32.232Z,6.44
2023-01-19T22:29:00.293Z,6.35
2023-01-19T22:31:28.534Z,6.33
2023-01-19T22:33:55.775Z,6.32
2023-01-19T22:36:23.702Z,6.37
2023-01-19T22:39:01.873Z,6.43
2023-01-19T22:41:34.022Z,6.42
2023-01-19T22:44:03.425Z,6.41
2023-01-19T22:46:33.037Z,6.42
2023-01-19T22:49:00.225Z,6.41
2023-01-19T22:51:28.138Z,6.38
2023-01-19T22:53:54.862Z,6.37
2023-01-19T22:56:27.345Z,6.30
2023-01-19T22:58:54.065Z,6.38
2023-01-19T23:01:23.170Z,6.39
2023-01-19T23:03:50.160Z,6.36
2023-01-19T23:06:19.294Z,6.37
2023-01-19T23:08:46.034Z,6.35
2023-01-19T23:11:24.266Z,6.32
2023-01-19T23:13:50.915Z,6.35
2023-01-19T23:16:18.207Z,6.35
2023-01-19T23:18:45.518Z,6.38
2023-01-19T23:21:15.002Z,6.36
2023-01-19T23:23:42.686Z,6.36
2023-01-19T23:26:11.829Z,6.38
2023-01-19T23:28:39.475Z,6.34
2023-01-19T23:31:30.125Z,6.40
2023-01-19T23:33:59.943Z,6.40
2023-01-19T23:36:29.195Z,6.46
2023-01-19T23:38:58.312Z,6.43
2023-01-19T23:41:26.212Z,6.39
2023-01-19T23:43:52.778Z,6.34
2023-01-19T23:46:19.803Z,6.45
2023-01-19T23:48:46.670Z,6.33
2023-01-19T23:51:16.635Z,6.36
2023-01-19T23:53:43.499Z,6.39
2023-01-19T23:56:11.375Z,6.40
2023-01-19T23:58:38.710Z,6.42
